createdAt,value
2019-04-01T00:00:11.685Z,53.10
2019-04-01T00:02:39.178Z,53.12
2019-04-01T00:05:06.832Z,53.14
2019-04-01T00:07:34.325Z,53.17
2019-04-01T00:10:01.816Z,53.12
2019-04-01T00:12:29.317Z,53.17
2019-04-01T00:14:56.781Z,53.09
2019-04-01T00:17:24.334Z,53.08
2019-04-01T00:19:51.880Z,53.13
2019-04-01T00:22:19.363Z,53.17
2019-04-01T00:24:46.843Z,53.14
2019-04-01T00:27:14.398Z,53.21
2019-04-01T00:29:41.885Z,53.20
2019-04-01T00:32:09.455Z,53.13
2019-04-01T00:34:36.931Z,53.09
2019-04-01T00:37:04.403Z,53.17
2019-04-01T00:39:31.916Z,53.21
2019-04-01T00:42:15.353Z,53.23
2019-04-01T00:44:42.844Z,53.14
2019-04-01T00:47:10.364Z,53.19
2019-04-01T00:49:37.901Z,53.15
2019-04-01T00:52:05.404Z,53.23
2019-04-01T00:54:32.973Z,53.26
2019-04-01T00:57:00.512Z,53.25
2019-04-01T00:59:28.088Z,53.26
2019-04-01T01:01:55.594Z,53.24
2019-04-01T01:04:23.126Z,53.20
2019-04-01T01:06:50.632Z,53.27
2019-04-01T01:09:18.147Z,53.26
2019-04-01T01:11:45.807Z,53.23
2019-04-01T01:14:13.300Z,53.21
2019-04-01T01:16:40.784Z,53.33
2019-04-01T01:19:08.300Z,53.25
2019-04-01T01:21:36.227Z,53.27
2019-04-01T01:24:03.787Z,53.26
2019-04-01T01:26:31.462Z,53.24
2019-04-01T01:28:58.942Z,53.29
2019-04-01T01:31:26.441Z,53.30
2019-04-01T01:33:54.063Z,53.22
2019-04-01T01:36:21.610Z,53.27
2019-04-01T01:38:49.119Z,53.25
2019-04-01T01:41:16.758Z,53.21
2019-04-01T01:43:44.264Z,53.22
2019-04-01T01:46:11.764Z,53.25
2019-04-01T01:48:39.242Z,53.18
2019-04-01T01:51:06.803Z,53.20
2019-04-01T01:53:34.367Z,53.21
2019-04-01T01:56:01.961Z,53.25
2019-04-01T01:58:29.496Z,53.20
2019-04-01T02:00:57.144Z,53.20
2019-04-01T02:03:24.698Z,53.19
2019-04-01T02:05:52.180Z,53.16
2019-04-01T02:08:19.799Z,53.18
2019-04-01T02:10:47.302Z,53.18
2019-04-01T02:13:14.795Z,53.13
2019-04-01T02:15:42.420Z,53.17
2019-04-01T02:18:09.942Z,53.25
2019-04-01T02:20:37.570Z,53.18
2019-04-01T02:23:05.035Z,53.16
2019-04-01T02:25:32.535Z,53.21
2019-04-01T02:28:00.147Z,53.24
2019-04-01T02:30:27.671Z,53.21
2019-04-01T02:32:55.186Z,53.19
2019-04-01T02:35:22.817Z,53.28
2019-04-01T02:37:50.314Z,53.32
2019-04-01T02:40:21.731Z,53.34
2019-04-01T02:42:47.261Z,53.30
2019-04-01T02:45:15.408Z,53.27
2019-04-01T02:47:42.938Z,53.23
2019-04-01T02:50:10.445Z,53.20
2019-04-01T02:52:38.091Z,53.25
2019-04-01T02:55:06.779Z,53.27
2019-04-01T02:57:34.858Z,53.24
2019-04-01T03:00:02.412Z,53.29
2019-04-01T03:02:30.013Z,53.29
2019-04-01T03:04:57.613Z,53.28
2019-04-01T03:07:25.093Z,53.27
2019-04-01T03:09:52.603Z,53.25
2019-04-01T03:12:20.160Z,53.31
2019-04-01T03:14:47.690Z,53.36
2019-04-01T03:17:15.255Z,53.34
2019-04-01T03:19:42.736Z,53.30
2019-04-01T03:22:10.279Z,53.35
2019-04-01T03:24:37.780Z,53.34
2019-04-01T03:27:05.277Z,53.32
2019-04-01T03:29:32.801Z,53.27
2019-04-01T03:32:00.324Z,53.24
2019-04-01T03:34:27.893Z,53.25
2019-04-01T03:36:55.409Z,53.29
2019-04-01T03:39:22.921Z,53.31
2019-04-01T03:41:50.440Z,53.22
2019-04-01T03:44:17.940Z,53.18
2019-04-01T03:46:45.586Z,53.16
2019-04-01T03:49:13.162Z,53.17
2019-04-01T03:51:40.686Z,53.20
2019-04-01T03:54:08.250Z,53.10
2019-04-01T03:56:35.762Z,53.05
2019-04-01T03:59:03.331Z,53.08
2019-04-01T04:01:30.921Z,53.13
2019-04-01T04:03:58.613Z,53.13
2019-04-01T04:06:26.160Z,53.15
2019-04-01T04:08:53.639Z,53.13
2019-04-01T04:11:21.175Z,53.14
2019-04-01T04:13:48.662Z,53.17
2019-04-01T04:16:16.199Z,53.14
2019-04-01T04:18:43.712Z,53.26
2019-04-01T04:21:11.303Z,53.31
2019-04-01T04:23:38.790Z,53.23
2019-04-01T04:26:06.498Z,53.04
2019-04-01T04:28:34.035Z,53.22
2019-04-01T04:31:01.619Z,53.14
2019-04-01T04:33:29.154Z,53.03
2019-04-01T04:35:56.679Z,53.07
2019-04-01T04:38:24.210Z,53.05
2019-04-01T04:40:51.749Z,52.91
2019-04-01T04:43:19.228Z,52.66
2019-04-01T04:45:46.701Z,52.56
2019-04-01T04:48:14.254Z,52.36
2019-04-01T04:50:41.754Z,52.24
2019-04-01T04:53:09.257Z,52.19
2019-04-01T04:55:37.082Z,52.04
2019-04-01T04:58:04.784Z,51.99
2019-04-01T05:00:32.406Z,51.94
2019-04-01T05:02:59.906Z,51.79
2019-04-01T05:05:27.447Z,51.79
2019-04-01T05:07:55.027Z,51.79
2019-04-01T05:10:22.545Z,51.75
2019-04-01T05:12:50.062Z,51.67
2019-04-01T05:15:17.588Z,51.63
2019-04-01T05:17:45.069Z,51.56
2019-04-01T05:20:12.586Z,51.51
2019-04-01T05:22:40.071Z,51.43
2019-04-01T05:25:07.619Z,51.36
2019-04-01T05:27:35.126Z,51.34
2019-04-01T05:30:03.625Z,51.38
2019-04-01T05:32:31.621Z,51.34
2019-04-01T05:34:59.132Z,51.37
2019-04-01T05:37:26.613Z,51.35
2019-04-01T05:39:54.151Z,51.28
2019-04-01T05:42:21.778Z,51.27
2019-04-01T05:44:49.269Z,51.24
2019-04-01T05:47:18.050Z,51.20
2019-04-01T05:49:45.610Z,51.14
2019-04-01T05:52:13.102Z,51.06
2019-04-01T05:54:40.577Z,51.00
2019-04-01T05:57:08.148Z,50.97
2019-04-01T05:59:35.669Z,50.95
2019-04-01T06:02:03.652Z,50.92
2019-04-01T06:04:31.135Z,50.94
2019-04-01T06:06:58.797Z,50.96
2019-04-01T06:09:26.286Z,50.88
2019-04-01T06:11:53.775Z,50.80
2019-04-01T06:14:21.312Z,50.81
2019-04-01T06:16:48.833Z,50.81
2019-04-01T06:19:16.303Z,50.80
2019-04-01T06:21:43.854Z,50.73
2019-04-01T06:24:11.353Z,50.71
2019-04-01T06:26:38.921Z,50.66
2019-04-01T06:29:06.456Z,50.60
2019-04-01T06:31:34.083Z,50.52
2019-04-01T06:34:01.613Z,50.46
2019-04-01T06:36:30.193Z,50.45
2019-04-01T06:38:57.772Z,50.39
2019-04-01T06:41:25.278Z,50.38
2019-04-01T06:43:52.813Z,50.36
2019-04-01T06:46:20.275Z,50.29
2019-04-01T06:48:47.960Z,50.24
2019-04-01T06:51:15.445Z,50.25
2019-04-01T06:53:42.938Z,50.21
2019-04-01T06:56:10.496Z,50.19
2019-04-01T06:58:38.019Z,50.20
2019-04-01T07:01:05.497Z,50.19
2019-04-01T07:03:33.040Z,50.10
2019-04-01T07:06:00.567Z,49.98
2019-04-01T07:08:28.208Z,49.95
2019-04-01T07:10:55.723Z,49.92
2019-04-01T07:13:23.281Z,49.87
2019-04-01T07:15:50.795Z,49.85
2019-04-01T07:18:18.452Z,49.81
2019-04-01T07:20:45.962Z,49.76
2019-04-01T07:23:13.481Z,49.72
2019-04-01T07:25:41.035Z,49.66
2019-04-01T07:28:08.579Z,49.56
2019-04-01T07:30:36.203Z,49.57
2019-04-01T07:33:03.751Z,49.53
2019-04-01T07:35:31.246Z,49.49
2019-04-01T07:37:58.786Z,49.42
2019-04-01T07:40:26.470Z,49.36
2019-04-01T07:42:54.071Z,49.35
2019-04-01T07:45:21.574Z,49.33
2019-04-01T07:47:51.664Z,49.26
2019-04-01T07:50:18.594Z,49.22
2019-04-01T07:52:46.118Z,49.20
2019-04-01T07:55:13.670Z,49.18
2019-04-01T07:57:41.248Z,49.17
2019-04-01T08:00:08.807Z,49.12
2019-04-01T08:02:36.395Z,49.07
2019-04-01T08:05:04.122Z,48.97
2019-04-01T08:07:31.619Z,48.87
2019-04-01T08:09:59.162Z,48.87
2019-04-01T08:12:28.013Z,48.74
2019-04-01T08:14:55.792Z,48.68
2019-04-01T08:17:23.579Z,48.65
2019-04-01T08:19:51.141Z,48.64
2019-04-01T08:22:18.618Z,48.56
2019-04-01T08:24:46.131Z,48.52
2019-04-01T08:27:13.626Z,48.45
2019-04-01T08:29:41.154Z,48.37
2019-04-01T08:32:08.694Z,48.26
2019-04-01T08:34:36.195Z,48.21
2019-04-01T08:37:03.872Z,48.18
2019-04-01T08:39:31.429Z,48.14
2019-04-01T08:41:58.965Z,48.09
2019-04-01T08:44:26.619Z,48.15
2019-04-01T08:46:54.207Z,48.13
2019-04-01T08:49:21.885Z,48.09
2019-04-01T08:51:49.474Z,48.03
2019-04-01T08:54:17.057Z,47.99
2019-04-01T08:56:44.601Z,47.94
2019-04-01T08:59:12.430Z,47.93
2019-04-01T09:01:39.907Z,47.89
2019-04-01T09:04:07.409Z,47.75
2019-04-01T09:06:35.070Z,47.86
2019-04-01T09:09:04.404Z,47.73
2019-04-01T09:11:32.028Z,47.64
2019-04-01T09:13:59.560Z,47.56
2019-04-01T09:16:27.088Z,47.47
2019-04-01T09:18:54.686Z,47.41
2019-04-01T09:21:22.176Z,47.34
2019-04-01T09:23:52.132Z,47.29
2019-04-01T09:26:19.123Z,47.22
2019-04-01T09:28:46.655Z,47.16
2019-04-01T09:31:14.158Z,47.13
2019-04-01T09:33:41.681Z,47.07
2019-04-01T09:36:09.236Z,47.02
2019-04-01T09:38:36.755Z,46.98
2019-04-01T09:41:04.418Z,46.98
2019-04-01T09:43:31.917Z,46.98
2019-04-01T09:45:59.494Z,46.99
2019-04-01T09:48:28.102Z,46.99
2019-04-01T09:50:55.626Z,46.98
2019-04-01T09:53:23.185Z,46.92
2019-04-01T09:55:50.742Z,46.91
2019-04-01T09:58:18.228Z,46.92
2019-04-01T10:00:53.044Z,46.89
2019-04-01T10:03:19.280Z,46.89
2019-04-01T10:05:46.791Z,46.84
2019-04-01T10:08:14.622Z,46.77
2019-04-01T10:10:42.424Z,46.73
2019-04-01T10:13:10.745Z,46.72
2019-04-01T10:15:38.339Z,46.66
2019-04-01T10:18:05.856Z,46.60
2019-04-01T10:20:33.413Z,46.54
2019-04-01T10:23:00.909Z,46.55
2019-04-01T10:25:28.657Z,46.47
2019-04-01T10:27:56.216Z,46.46
2019-04-01T10:30:23.749Z,46.43
2019-04-01T10:32:51.480Z,46.39
2019-04-01T10:35:18.994Z,46.35
2019-04-01T10:37:46.471Z,46.35
2019-04-01T10:40:14.068Z,46.34
2019-04-01T10:42:41.672Z,46.33
2019-04-01T10:45:09.158Z,46.30
2019-04-01T10:47:36.896Z,46.33
2019-04-01T10:50:04.829Z,46.27
2019-04-01T10:52:32.421Z,46.18
2019-04-01T10:55:00.134Z,46.15
2019-04-01T10:57:28.021Z,46.17
2019-04-01T10:59:55.838Z,46.16
2019-04-01T11:02:23.512Z,46.09
2019-04-01T11:04:51.181Z,46.04
2019-04-01T11:07:18.854Z,46.03
2019-04-01T11:09:46.437Z,46.04
2019-04-01T11:12:13.955Z,45.99
2019-04-01T11:14:41.675Z,45.94
2019-04-01T11:17:09.274Z,45.91
2019-04-01T11:19:36.783Z,45.87
2019-04-01T11:22:04.458Z,45.87
2019-04-01T11:24:32.013Z,45.82
2019-04-01T11:26:59.653Z,45.74
2019-04-01T11:29:27.207Z,45.69
2019-04-01T11:31:54.889Z,45.69
2019-04-01T11:34:22.595Z,45.71
2019-04-01T11:36:50.288Z,45.63
2019-04-01T11:39:17.962Z,45.59
2019-04-01T11:41:45.589Z,45.57
2019-04-01T11:44:13.198Z,45.56
2019-04-01T11:46:41.013Z,45.54
2019-04-01T11:49:08.644Z,45.54
2019-04-01T11:51:39.709Z,45.55
2019-04-01T11:54:08.129Z,45.52
2019-04-01T11:56:35.092Z,45.52
2019-04-01T11:59:02.626Z,45.49
2019-04-01T12:01:30.131Z,45.46
2019-04-01T12:03:57.720Z,45.43
2019-04-01T12:06:25.252Z,45.36
2019-04-01T12:08:52.727Z,45.35
2019-04-01T12:11:20.258Z,45.33
2019-04-01T12:13:47.796Z,45.27
2019-04-01T12:16:15.510Z,45.29
2019-04-01T12:18:44.665Z,45.23
2019-04-01T12:21:12.420Z,45.25
2019-04-01T12:23:39.923Z,45.26
2019-04-01T12:26:14.848Z,45.25
2019-04-01T12:28:37.543Z,45.23
2019-04-01T12:31:05.091Z,45.20
2019-04-01T12:33:32.758Z,45.17
2019-04-01T12:36:00.370Z,45.15
2019-04-01T12:38:28.093Z,45.13
2019-04-01T12:40:55.696Z,45.09
2019-04-01T12:43:23.751Z,45.10
2019-04-01T12:45:51.392Z,45.05
2019-04-01T12:48:19.062Z,45.06
2019-04-01T12:50:46.744Z,45.08
2019-04-01T12:53:14.498Z,45.06
2019-04-01T12:55:44.989Z,45.02
2019-04-01T12:58:11.527Z,45.05
2019-04-01T13:00:39.125Z,45.01
2019-04-01T13:03:06.773Z,45.03
2019-04-01T13:05:34.391Z,45.06
2019-04-01T13:08:02.047Z,45.08
2019-04-01T13:10:29.670Z,45.08
2019-04-01T13:12:57.280Z,45.02
2019-04-01T13:15:24.844Z,45.01
2019-04-01T13:17:52.417Z,44.98
2019-04-01T13:20:19.992Z,44.97
2019-04-01T13:22:47.621Z,44.98
2019-04-01T13:25:15.205Z,44.95
2019-04-01T13:27:42.855Z,44.95
2019-04-01T13:30:10.427Z,44.87
2019-04-01T13:32:38.162Z,44.76
2019-04-01T13:35:05.815Z,44.64
2019-04-01T13:37:33.475Z,44.41
2019-04-01T13:40:02.894Z,44.11
2019-04-01T13:42:30.555Z,43.81
2019-04-01T13:45:01.660Z,43.51
2019-04-01T13:47:27.674Z,43.19
2019-04-01T13:49:55.314Z,42.88
2019-04-01T13:52:22.898Z,42.63
2019-04-01T13:54:50.847Z,42.40
2019-04-01T13:57:18.413Z,42.21
2019-04-01T13:59:49.646Z,42.16
2019-04-01T14:02:15.786Z,42.38
2019-04-01T14:04:43.315Z,42.82
2019-04-01T14:07:10.885Z,43.13
2019-04-01T14:09:38.441Z,43.29
2019-04-01T14:12:05.943Z,43.38
2019-04-01T14:14:33.488Z,43.40
2019-04-01T14:17:01.105Z,43.53
2019-04-01T14:19:28.715Z,43.59
2019-04-01T14:21:56.174Z,43.61
2019-04-01T14:24:23.674Z,43.54
2019-04-01T14:26:51.384Z,43.27
2019-04-01T14:29:19.054Z,43.01
2019-04-01T14:31:46.565Z,42.55
2019-04-01T14:34:22.881Z,41.29
2019-04-01T14:36:43.632Z,39.31
2019-04-01T14:39:11.333Z,37.97
2019-04-01T14:41:38.823Z,37.13
2019-04-01T14:44:06.349Z,36.54
2019-04-01T14:46:34.098Z,36.22
2019-04-01T14:49:02.756Z,36.00
2019-04-01T14:51:30.837Z,35.83
2019-04-01T14:53:58.489Z,35.83
2019-04-01T14:56:25.983Z,35.87
2019-04-01T14:58:53.641Z,35.82
2019-04-01T15:01:21.160Z,35.86
2019-04-01T15:03:48.658Z,35.91
2019-04-01T15:06:16.984Z,36.01
2019-04-01T15:08:44.809Z,36.12
2019-04-01T15:11:12.733Z,36.29
2019-04-01T15:13:40.496Z,36.40
2019-04-01T15:16:08.154Z,36.54
2019-04-01T15:18:35.661Z,36.62
2019-04-01T15:21:03.156Z,36.69
2019-04-01T15:23:30.687Z,36.66
2019-04-01T15:25:58.203Z,36.75
2019-04-01T15:28:25.687Z,36.78
2019-04-01T15:30:53.299Z,36.73
2019-04-01T15:33:21.308Z,36.72
2019-04-01T15:35:49.189Z,36.65
2019-04-01T15:38:16.698Z,36.57
2019-04-01T15:40:44.184Z,36.54
2019-04-01T15:43:12.153Z,36.44
2019-04-01T15:45:39.939Z,36.33
2019-04-01T15:48:07.796Z,36.27
2019-04-01T15:50:35.714Z,36.29
2019-04-01T15:53:03.307Z,36.39
2019-04-01T15:55:31.667Z,36.66
2019-04-01T15:57:59.636Z,37.07
2019-04-01T16:00:27.179Z,37.38
2019-04-01T16:02:54.688Z,37.55
2019-04-01T16:05:22.254Z,37.59
2019-04-01T16:07:49.764Z,37.69
2019-04-01T16:10:17.282Z,37.76
2019-04-01T16:12:45.320Z,37.84
2019-04-01T16:15:13.261Z,37.84
2019-04-01T16:17:40.779Z,37.93
2019-04-01T16:20:08.333Z,38.03
2019-04-01T16:22:35.857Z,38.19
2019-04-01T16:25:03.817Z,38.24
2019-04-01T16:27:31.351Z,38.26
2019-04-01T16:29:58.942Z,38.38
2019-04-01T16:32:26.480Z,38.50
2019-04-01T16:34:53.987Z,38.66
2019-04-01T16:37:21.526Z,38.80
2019-04-01T16:39:49.454Z,39.01
2019-04-01T16:42:17.006Z,39.26
2019-04-01T16:44:44.551Z,39.40
2019-04-01T16:47:14.422Z,39.53
2019-04-01T16:49:41.567Z,39.70
2019-04-01T16:52:09.133Z,39.94
2019-04-01T16:54:37.726Z,40.12
2019-04-01T16:57:06.321Z,40.24
2019-04-01T16:59:34.105Z,40.44
2019-04-01T17:02:01.684Z,40.56
2019-04-01T17:04:29.254Z,40.74
2019-04-01T17:06:56.777Z,40.90
2019-04-01T17:09:24.340Z,41.03
2019-04-01T17:11:54.283Z,41.09
2019-04-01T17:14:21.358Z,41.12
2019-04-01T17:16:48.884Z,41.13
2019-04-01T17:19:16.555Z,41.14
2019-04-01T17:21:44.056Z,41.15
2019-04-01T17:24:11.623Z,41.23
2019-04-01T17:27:16.875Z,41.34
2019-04-01T17:29:44.969Z,41.46
2019-04-01T17:32:12.782Z,41.66
2019-04-01T17:34:40.359Z,41.87
2019-04-01T17:37:08.294Z,42.12
2019-04-01T17:39:36.991Z,42.40
2019-04-01T17:42:04.735Z,42.65
2019-04-01T17:44:32.263Z,42.86
2019-04-01T17:46:59.871Z,43.03
2019-04-01T17:49:27.386Z,43.20
2019-04-01T17:51:56.292Z,43.40
2019-04-01T17:54:24.281Z,43.62
2019-04-01T17:56:51.793Z,43.83
2019-04-01T17:59:19.374Z,44.05
2019-04-01T18:01:46.887Z,44.27
2019-04-01T18:04:14.374Z,44.42
2019-04-01T18:06:41.941Z,44.59
2019-04-01T18:09:09.548Z,44.83
2019-04-01T18:11:37.045Z,44.95
2019-04-01T18:14:04.734Z,45.14
2019-04-01T18:16:32.329Z,45.26
2019-04-01T18:18:59.992Z,45.43
2019-04-01T18:21:27.521Z,45.58
2019-04-01T18:23:55.176Z,45.68
2019-04-01T18:26:22.751Z,45.81
2019-04-01T18:28:50.343Z,45.94
2019-04-01T18:31:17.901Z,46.08
2019-04-01T18:33:56.081Z,46.23
2019-04-01T18:36:14.890Z,46.38
2019-04-01T18:38:42.383Z,46.44
2019-04-01T18:41:09.958Z,46.53
2019-04-01T18:43:37.502Z,46.59
2019-04-01T18:46:05.031Z,46.72
2019-04-01T18:48:32.617Z,46.81
2019-04-01T18:51:00.104Z,46.92
2019-04-01T18:53:28.595Z,47.01
2019-04-01T18:55:56.456Z,47.08
2019-04-01T18:58:24.291Z,47.14
2019-04-01T19:00:52.827Z,47.21
2019-04-01T19:03:23.768Z,47.31
2019-04-01T19:05:49.813Z,47.40
2019-04-01T19:08:17.350Z,47.47
2019-04-01T19:10:44.954Z,47.54
2019-04-01T19:13:13.237Z,47.62
2019-04-01T19:15:41.957Z,47.65
2019-04-01T19:20:56.929Z,47.75
2019-04-01T19:23:20.642Z,47.59
2019-04-01T19:25:47.914Z,47.42
2019-04-01T19:28:15.208Z,47.43
2019-04-01T19:30:43.339Z,47.40
2019-04-01T19:33:11.010Z,47.53
2019-04-01T19:35:38.292Z,47.57
2019-04-01T19:38:07.172Z,47.60
2019-04-01T19:40:34.739Z,47.66
2019-04-01T19:43:03.589Z,47.67
2019-04-01T19:45:31.366Z,47.75
2019-04-01T19:47:58.695Z,47.77
2019-04-01T19:50:25.955Z,47.60
2019-04-01T19:52:53.211Z,47.60
2019-04-01T19:55:20.458Z,47.67
2019-04-01T19:57:47.742Z,47.72
2019-04-01T20:00:26.966Z,48.41
2019-04-01T20:02:44.238Z,48.99
2019-04-01T20:05:11.507Z,49.25
2019-04-01T20:07:38.743Z,49.42
2019-04-01T20:10:06.022Z,49.56
2019-04-01T20:12:33.268Z,49.51
2019-04-01T20:15:00.545Z,49.56
2019-04-01T20:17:27.795Z,49.63
2019-04-01T20:19:55.065Z,49.66
2019-04-01T20:22:22.302Z,49.79
2019-04-01T20:24:49.575Z,49.92
2019-04-01T20:27:16.824Z,50.06
2019-04-01T20:29:44.083Z,50.23
2019-04-01T20:32:17.513Z,50.33
2019-04-01T20:34:40.512Z,50.28
2019-04-01T20:37:07.854Z,50.44
2019-04-01T20:39:35.104Z,50.48
2019-04-01T20:42:02.376Z,50.45
2019-04-01T20:44:29.632Z,50.59
2019-04-01T20:46:56.889Z,50.62
2019-04-01T20:49:24.198Z,50.84
2019-04-01T20:51:51.457Z,50.84
2019-04-01T20:54:18.833Z,50.68
2019-04-01T20:56:46.069Z,50.71
2019-04-01T20:59:13.314Z,50.57
2019-04-01T21:01:40.567Z,50.56
2019-04-01T21:04:07.802Z,50.54
2019-04-01T21:06:35.086Z,50.66
2019-04-01T21:09:06.618Z,50.73
2019-04-01T21:11:33.875Z,50.96
2019-04-01T21:14:01.165Z,51.09
2019-04-01T21:16:28.528Z,51.08
2019-04-01T21:18:55.879Z,51.21
2019-04-01T21:21:23.242Z,51.18
2019-04-01T21:23:50.610Z,51.14
2019-04-01T21:26:18.092Z,51.31
2019-04-01T21:28:45.667Z,51.47
2019-04-01T21:31:13.035Z,51.63
2019-04-01T21:33:41.160Z,51.57
2019-04-01T21:36:09.567Z,51.51
2019-04-01T21:38:36.861Z,51.57
2019-04-01T21:41:04.185Z,51.65
2019-04-01T21:43:31.560Z,51.82
2019-04-01T21:45:58.797Z,51.74
2019-04-01T21:48:26.142Z,51.84
2019-04-01T21:50:53.490Z,51.87
2019-04-01T21:53:20.802Z,51.76
2019-04-01T21:55:48.230Z,51.77
2019-04-01T21:58:16.123Z,51.71
2019-04-01T22:00:49.853Z,51.77
2019-04-01T22:03:17.390Z,51.94
2019-04-01T22:05:44.636Z,51.87
2019-04-01T22:08:11.951Z,51.96
2019-04-01T22:10:40.694Z,51.94
2019-04-01T22:13:08.001Z,51.84
2019-04-01T22:15:35.498Z,51.76
2019-04-01T22:18:02.916Z,51.70
2019-04-01T22:20:30.440Z,51.71
2019-04-01T22:22:58.007Z,51.77
2019-04-01T22:25:25.720Z,51.78
2019-04-01T22:27:53.323Z,51.89
2019-04-01T22:30:21.004Z,52.07
2019-04-01T22:32:48.389Z,52.41
2019-04-01T22:35:16.001Z,52.54
2019-04-01T22:37:44.115Z,52.64
2019-04-01T22:40:12.194Z,52.63
2019-04-01T22:42:39.619Z,52.73
2019-04-01T22:45:07.679Z,52.77
2019-04-01T22:47:34.955Z,52.91
2019-04-01T22:50:02.605Z,53.10
2019-04-01T22:52:30.066Z,53.12
2019-04-01T22:54:58.249Z,53.02
2019-04-01T22:57:26.344Z,53.05
2019-04-01T22:59:53.728Z,53.22
2019-04-01T23:02:21.264Z,53.26
2019-04-01T23:04:48.671Z,53.25
2019-04-01T23:07:16.206Z,53.05
2019-04-01T23:09:43.445Z,53.05
2019-04-01T23:12:10.711Z,52.95
2019-04-01T23:14:37.962Z,52.87
2019-04-01T23:17:05.590Z,52.96
2019-04-01T23:19:34.505Z,52.94
2019-04-01T23:22:02.648Z,52.88
2019-04-01T23:24:30.298Z,52.90
2019-04-01T23:26:58.014Z,52.86
2019-04-01T23:29:25.384Z,52.82
2019-04-01T23:31:53.508Z,52.79
2019-04-01T23:34:20.881Z,52.94
2019-04-01T23:36:48.099Z,52.90
2019-04-01T23:39:15.321Z,52.74
2019-04-01T23:41:42.581Z,52.62
2019-04-01T23:44:09.808Z,52.59
2019-04-01T23:46:37.440Z,52.49
2019-04-01T23:49:04.710Z,52.40
2019-04-01T23:51:36.250Z,52.36
2019-04-01T23:54:03.902Z,52.38
2019-04-01T23:56:31.120Z,52.38
2019-04-01T23:58:59.356Z,52.42
